Fayette, Indiana
Current Conditions -  °F | °C
As of 4:18 AM on Monday 24 Nov 2014 (Local Time) from KHUF Reporting Station
Overcast Overcast  
Wind Chill: 55°   Ceiling: 1300
Heat Index: 55°   Visibility: 10mi
Dew Point: 53°   Wind: 14mph
Humidity: 93%   Direction: 190°S
Pressure: 29.19"   Gusts: NA
Location:  39.5107°N, 87.4772°W
Report Text: KHUF 240918Z 19012KT 10SM SCT009 BKN013 OVC026 13/12 A2919 RMK AO2 LTG DSNT E RAE13 P0000 T01280117 $
Loading
Personal Weather Stations






























Interactive Weather Map New forecast layout! Learn more

10-Day Weather Forecast

Advertisements
Track Severe Weather on mobile